EDMO METAR and TAF | Updated Today

EDMO METAR

Oberpfaffenhofen Airport

Observation time: 7 min. ago

EDMO 292050Z AUTO 14002KT 9000 // FEW002/// OVC110/// 07/07 Q1006

Need help? Read our tutorial on how to read METARs or read the parsed version below.

Oberpfaffenhofen Airport (EDMO) METAR

  • Weather conditions on Thu, 29 Sep 2022 20:50:00 +0000 (7 min. ago):
  • Present conditions: Dry
  • Clouds: A few at 61 meters; overcast sky at 3353 meters
  • Visibility: 9000 meters
  • Wind: 140 degrees at 2 knots
  • Temperature: 7 celsius
  • Dew point: 7 celsius
  • Pressure: 1006 millibars
  • Remarks: None


Useful to know...

EDMO TAF

Oberpfaffenhofen Airport

TAF EDMO 291700Z 2918/3003 VRB03KT 9999 FEW055 BECMG 2921/2924 2000 BR PROB30 TEMPO 2923/3003 0900 FG BKN004
Observation time: 3:57 hr. ago
Need help? Read our tutorial on how to read TAFs or read the parsed version below.

Parsed version of TAF for Oberpfaffenhofen Airport (EDMO)

  • From 29 September at 18:00 UTC, to day 30 of the month at 03:00 UTC
  • Clouds: A few at 1676 meters
  • Visibility: Greater than 10 km
  • Wind: Variable at 3
  • Expected to arise soon, from 29 September at 21:00 UTC, to day 29 of the month at 24:00 UTC
  • Visibility: 2000 meters
  • Other: Mist
  • Expected to arise temporarily, from 29 September at 23:00 UTC, to day 30 of the month at 03:00 UTC
    Probability of 30%
  • Clouds: Broken sky at 122 meters
  • Visibility: 900 meters
  • Other: Fog